sensor_id;sensor_type;location;lat;lon;timestamp;P1;durP1;ratioP1;P2;durP2;ratioP2
44078;SDS011;29744;49.078;12.878;2023-05-10T00:01:21;0.95;;;0.80;;
44078;SDS011;29744;49.078;12.878;2023-05-10T00:06:22;1.60;;;0.98;;
44078;SDS011;29744;49.078;12.878;2023-05-10T00:11:22;1.88;;;1.02;;
44078;SDS011;29744;49.078;12.878;2023-05-10T00:16:22;1.40;;;1.00;;
44078;SDS011;29744;49.078;12.878;2023-05-10T00:21:23;1.70;;;1.05;;
44078;SDS011;29744;49.078;12.878;2023-05-10T00:26:23;1.35;;;0.88;;
44078;SDS011;29744;49.078;12.878;2023-05-10T00:31:23;1.60;;;0.90;;
44078;SDS011;29744;49.078;12.878;2023-05-10T00:36:24;1.83;;;0.85;;
44078;SDS011;29744;49.078;12.878;2023-05-10T00:41:24;1.48;;;1.00;;
44078;SDS011;29744;49.078;12.878;2023-05-10T00:46:24;1.58;;;0.80;;
44078;SDS011;29744;49.078;12.878;2023-05-10T00:51:25;1.65;;;1.10;;
44078;SDS011;29744;49.078;12.878;2023-05-10T00:56:26;1.50;;;1.00;;
44078;SDS011;29744;49.078;12.878;2023-05-10T01:01:26;0.88;;;0.80;;
44078;SDS011;29744;49.078;12.878;2023-05-10T01:06:28;1.40;;;1.00;;
44078;SDS011;29744;49.078;12.878;2023-05-10T01:11:28;1.50;;;1.00;;
44078;SDS011;29744;49.078;12.878;2023-05-10T01:16:32;1.00;;;0.70;;
44078;SDS011;29744;49.078;12.878;2023-05-10T01:21:43;1.30;;;0.90;;
44078;SDS011;29744;49.078;12.878;2023-05-10T01:32:29;1.52;;;1.00;;
44078;SDS011;29744;49.078;12.878;2023-05-10T01:37:42;1.55;;;1.00;;
44078;SDS011;29744;49.078;12.878;2023-05-10T01:42:51;1.10;;;0.80;;
44078;SDS011;29744;49.078;12.878;2023-05-10T01:48:10;1.58;;;1.00;;
44078;SDS011;29744;49.078;12.878;2023-05-10T01:53:14;1.30;;;0.90;;
44078;SDS011;29744;49.078;12.878;2023-05-10T01:58:23;1.63;;;1.00;;
44078;SDS011;29744;49.078;12.878;2023-05-10T02:03:28;1.25;;;1.00;;
44078;SDS011;29744;49.078;12.878;2023-05-10T02:08:32;1.52;;;0.93;;
44078;SDS011;29744;49.078;12.878;2023-05-10T02:13:35;1.27;;;0.82;;
44078;SDS011;29744;49.078;12.878;2023-05-10T02:18:39;0.90;;;0.80;;
44078;SDS011;29744;49.078;12.878;2023-05-10T02:23:41;1.33;;;0.90;;
44078;SDS011;29744;49.078;12.878;2023-05-10T02:28:43;1.58;;;0.90;;
44078;SDS011;29744;49.078;12.878;2023-05-10T02:33:44;1.48;;;1.05;;
44078;SDS011;29744;49.078;12.878;2023-05-10T02:38:48;1.67;;;1.00;;
44078;SDS011;29744;49.078;12.878;2023-05-10T02:43:51;1.48;;;0.90;;
44078;SDS011;29744;49.078;12.878;2023-05-10T02:48:56;1.23;;;0.80;;
44078;SDS011;29744;49.078;12.878;2023-05-10T02:53:56;1.30;;;0.90;;
44078;SDS011;29744;49.078;12.878;2023-05-10T02:58:59;1.10;;;0.75;;
44078;SDS011;29744;49.078;12.878;2023-05-10T03:04:00;1.05;;;0.77;;
44078;SDS011;29744;49.078;12.878;2023-05-10T03:09:01;1.38;;;0.90;;
44078;SDS011;29744;49.078;12.878;2023-05-10T03:24:30;1.45;;;0.90;;
44078;SDS011;29744;49.078;12.878;2023-05-10T03:29:32;1.25;;;0.90;;
44078;SDS011;29744;49.078;12.878;2023-05-10T03:34:33;1.15;;;0.82;;
44078;SDS011;29744;49.078;12.878;2023-05-10T03:39:33;1.20;;;0.90;;
44078;SDS011;29744;49.078;12.878;2023-05-10T03:44:34;1.17;;;0.88;;
44078;SDS011;29744;49.078;12.878;2023-05-10T03:49:34;2.03;;;0.95;;
44078;SDS011;29744;49.078;12.878;2023-05-10T03:54:34;1.70;;;0.90;;
44078;SDS011;29744;49.078;12.878;2023-05-10T03:59:34;0.90;;;0.80;;
44078;SDS011;29744;49.078;12.878;2023-05-10T04:04:35;1.48;;;0.85;;
44078;SDS011;29744;49.078;12.878;2023-05-10T04:09:35;1.00;;;0.82;;
44078;SDS011;29744;49.078;12.878;2023-05-10T04:14:36;1.38;;;0.85;;
44078;SDS011;29744;49.078;12.878;2023-05-10T04:19:37;2.40;;;1.00;;
44078;SDS011;29744;49.078;12.878;2023-05-10T04:24:37;1.45;;;0.88;;
44078;SDS011;29744;49.078;12.878;2023-05-10T04:29:37;1.42;;;0.90;;
44078;SDS011;29744;49.078;12.878;2023-05-10T04:34:38;1.58;;;0.90;;
44078;SDS011;29744;49.078;12.878;2023-05-10T04:39:38;1.33;;;0.90;;
44078;SDS011;29744;49.078;12.878;2023-05-10T04:44:38;1.05;;;0.80;;
44078;SDS011;29744;49.078;12.878;2023-05-10T04:49:39;1.05;;;0.80;;
44078;SDS011;29744;49.078;12.878;2023-05-10T04:54:39;1.38;;;0.90;;
44078;SDS011;29744;49.078;12.878;2023-05-10T04:59:39;1.10;;;0.90;;
44078;SDS011;29744;49.078;12.878;2023-05-10T05:04:40;1.02;;;0.80;;
44078;SDS011;29744;49.078;12.878;2023-05-10T05:09:40;0.75;;;0.73;;
44078;SDS011;29744;49.078;12.878;2023-05-10T05:14:40;1.40;;;0.90;;
44078;SDS011;29744;49.078;12.878;2023-05-10T05:19:41;1.20;;;0.90;;
44078;SDS011;29744;49.078;12.878;2023-05-10T05:24:41;1.30;;;0.85;;
44078;SDS011;29744;49.078;12.878;2023-05-10T05:29:41;1.20;;;0.90;;
44078;SDS011;29744;49.078;12.878;2023-05-10T05:34:41;0.70;;;0.70;;
44078;SDS011;29744;49.078;12.878;2023-05-10T05:39:44;1.40;;;0.90;;
44078;SDS011;29744;49.078;12.878;2023-05-10T05:44:45;1.20;;;0.90;;
44078;SDS011;29744;49.078;12.878;2023-05-10T05:49:45;1.35;;;0.90;;
44078;SDS011;29744;49.078;12.878;2023-05-10T05:54:45;1.52;;;0.80;;
44078;SDS011;29744;49.078;12.878;2023-05-10T05:59:46;1.45;;;0.90;;
44078;SDS011;29744;49.078;12.878;2023-05-10T06:04:46;1.27;;;0.90;;
44078;SDS011;29744;49.078;12.878;2023-05-10T06:09:46;0.88;;;0.70;;
44078;SDS011;29744;49.078;12.878;2023-05-10T06:14:47;1.25;;;0.80;;
44078;SDS011;29744;49.078;12.878;2023-05-10T06:19:47;1.00;;;0.77;;
44078;SDS011;29744;49.078;12.878;2023-05-10T06:24:48;1.45;;;0.90;;
44078;SDS011;29744;49.078;12.878;2023-05-10T06:29:48;1.20;;;0.75;;
44078;SDS011;29744;49.078;12.878;2023-05-10T06:34:48;1.10;;;0.80;;
44078;SDS011;29744;49.078;12.878;2023-05-10T06:39:49;1.08;;;0.75;;
44078;SDS011;29744;49.078;12.878;2023-05-10T06:44:49;1.60;;;1.00;;
44078;SDS011;29744;49.078;12.878;2023-05-10T06:49:49;1.45;;;0.90;;
44078;SDS011;29744;49.078;12.878;2023-05-10T06:54:50;1.23;;;0.77;;
44078;SDS011;29744;49.078;12.878;2023-05-10T06:59:50;1.60;;;1.05;;
44078;SDS011;29744;49.078;12.878;2023-05-10T07:04:51;1.52;;;1.00;;
44078;SDS011;29744;49.078;12.878;2023-05-10T07:09:52;2.03;;;0.93;;
44078;SDS011;29744;49.078;12.878;2023-05-10T07:14:52;1.30;;;0.80;;
44078;SDS011;29744;49.078;12.878;2023-05-10T07:19:52;0.85;;;0.65;;
44078;SDS011;29744;49.078;12.878;2023-05-10T07:24:53;1.20;;;0.80;;
44078;SDS011;29744;49.078;12.878;2023-05-10T07:29:53;1.17;;;0.70;;
44078;SDS011;29744;49.078;12.878;2023-05-10T07:34:54;1.25;;;0.82;;
44078;SDS011;29744;49.078;12.878;2023-05-10T07:39:55;1.27;;;0.90;;
44078;SDS011;29744;49.078;12.878;2023-05-10T07:44:56;0.82;;;0.80;;
44078;SDS011;29744;49.078;12.878;2023-05-10T07:49:56;1.52;;;0.80;;
44078;SDS011;29744;49.078;12.878;2023-05-10T07:54:56;1.23;;;0.82;;
44078;SDS011;29744;49.078;12.878;2023-05-10T07:59:57;0.88;;;0.80;;
44078;SDS011;29744;49.078;12.878;2023-05-10T08:04:57;1.45;;;0.90;;
44078;SDS011;29744;49.078;12.878;2023-05-10T08:09:57;1.90;;;1.02;;
44078;SDS011;29744;49.078;12.878;2023-05-10T08:14:57;1.10;;;0.80;;
44078;SDS011;29744;49.078;12.878;2023-05-10T08:19:58;1.52;;;0.85;;
44078;SDS011;29744;49.078;12.878;2023-05-10T08:24:58;1.48;;;0.98;;
44078;SDS011;29744;49.078;12.878;2023-05-10T08:29:58;1.10;;;0.80;;
44078;SDS011;29744;49.078;12.878;2023-05-10T08:34:59;1.25;;;0.90;;
44078;SDS011;29744;49.078;12.878;2023-05-10T08:39:59;1.27;;;0.90;;
44078;SDS011;29744;49.078;12.878;2023-05-10T08:44:59;1.80;;;0.90;;
44078;SDS011;29744;49.078;12.878;2023-05-10T08:50:01;1.15;;;0.80;;
44078;SDS011;29744;49.078;12.878;2023-05-10T08:55:02;1.30;;;0.90;;
44078;SDS011;29744;49.078;12.878;2023-05-10T09:00:03;1.33;;;0.85;;
44078;SDS011;29744;49.078;12.878;2023-05-10T09:05:04;1.00;;;0.80;;
44078;SDS011;29744;49.078;12.878;2023-05-10T09:10:05;1.42;;;0.93;;
44078;SDS011;29744;49.078;12.878;2023-05-10T09:15:07;1.40;;;0.90;;
44078;SDS011;29744;49.078;12.878;2023-05-10T09:20:09;1.27;;;0.90;;
44078;SDS011;29744;49.078;12.878;2023-05-10T09:25:11;1.00;;;0.73;;
44078;SDS011;29744;49.078;12.878;2023-05-10T09:30:17;0.80;;;0.63;;
44078;SDS011;29744;49.078;12.878;2023-05-10T09:35:24;1.50;;;0.90;;
44078;SDS011;29744;49.078;12.878;2023-05-10T09:40:26;1.30;;;0.88;;
44078;SDS011;29744;49.078;12.878;2023-05-10T09:45:28;1.20;;;0.90;;
44078;SDS011;29744;49.078;12.878;2023-05-10T09:50:30;1.20;;;0.90;;
44078;SDS011;29744;49.078;12.878;2023-05-10T09:55:43;1.42;;;1.00;;
44078;SDS011;29744;49.078;12.878;2023-05-10T10:00:45;1.00;;;0.70;;
44078;SDS011;29744;49.078;12.878;2023-05-10T10:05:47;1.00;;;0.75;;
44078;SDS011;29744;49.078;12.878;2023-05-10T10:10:48;1.27;;;0.80;;
44078;SDS011;29744;49.078;12.878;2023-05-10T10:15:49;1.20;;;0.90;;
44078;SDS011;29744;49.078;12.878;2023-05-10T10:20:50;1.67;;;0.93;;
44078;SDS011;29744;49.078;12.878;2023-05-10T10:25:52;1.85;;;1.10;;
44078;SDS011;29744;49.078;12.878;2023-05-10T10:30:55;1.70;;;0.98;;
44078;SDS011;29744;49.078;12.878;2023-05-10T10:35:58;1.52;;;1.00;;
44078;SDS011;29744;49.078;12.878;2023-05-10T10:41:03;1.20;;;0.82;;
44078;SDS011;29744;49.078;12.878;2023-05-10T10:46:15;1.17;;;0.77;;
44078;SDS011;29744;49.078;12.878;2023-05-10T10:51:17;1.63;;;1.00;;
44078;SDS011;29744;49.078;12.878;2023-05-10T10:56:17;1.35;;;0.90;;
44078;SDS011;29744;49.078;12.878;2023-05-10T11:01:23;1.30;;;0.88;;
44078;SDS011;29744;49.078;12.878;2023-05-10T11:06:30;1.65;;;0.90;;
44078;SDS011;29744;49.078;12.878;2023-05-10T11:11:31;1.20;;;0.90;;
44078;SDS011;29744;49.078;12.878;2023-05-10T11:16:41;1.15;;;0.95;;
44078;SDS011;29744;49.078;12.878;2023-05-10T11:21:49;1.08;;;0.80;;
44078;SDS011;29744;49.078;12.878;2023-05-10T11:26:51;1.30;;;0.95;;
44078;SDS011;29744;49.078;12.878;2023-05-10T11:31:52;1.50;;;0.70;;
44078;SDS011;29744;49.078;12.878;2023-05-10T11:36:53;1.58;;;0.82;;
44078;SDS011;29744;49.078;12.878;2023-05-10T11:41:54;1.15;;;0.80;;
44078;SDS011;29744;49.078;12.878;2023-05-10T11:46:57;1.23;;;0.88;;
44078;SDS011;29744;49.078;12.878;2023-05-10T11:52:05;2.13;;;0.85;;
44078;SDS011;29744;49.078;12.878;2023-05-10T11:57:06;0.93;;;0.70;;
44078;SDS011;29744;49.078;12.878;2023-05-10T12:02:07;1.73;;;0.95;;
44078;SDS011;29744;49.078;12.878;2023-05-10T12:07:07;1.02;;;0.70;;
44078;SDS011;29744;49.078;12.878;2023-05-10T12:12:07;1.20;;;0.80;;
44078;SDS011;29744;49.078;12.878;2023-05-10T12:17:11;0.95;;;0.70;;
44078;SDS011;29744;49.078;12.878;2023-05-10T12:22:12;1.23;;;0.70;;
44078;SDS011;29744;49.078;12.878;2023-05-10T12:27:12;1.30;;;0.90;;
44078;SDS011;29744;49.078;12.878;2023-05-10T12:32:13;1.13;;;0.80;;
44078;SDS011;29744;49.078;12.878;2023-05-10T12:37:13;1.02;;;0.80;;
44078;SDS011;29744;49.078;12.878;2023-05-10T12:42:13;1.17;;;0.80;;
44078;SDS011;29744;49.078;12.878;2023-05-10T12:47:14;1.38;;;0.88;;
44078;SDS011;29744;49.078;12.878;2023-05-10T12:52:14;1.25;;;1.00;;
44078;SDS011;29744;49.078;12.878;2023-05-10T12:57:14;1.05;;;0.73;;
44078;SDS011;29744;49.078;12.878;2023-05-10T13:02:15;1.10;;;0.80;;
44078;SDS011;29744;49.078;12.878;2023-05-10T13:07:17;0.65;;;0.60;;
44078;SDS011;29744;49.078;12.878;2023-05-10T13:12:18;1.33;;;0.93;;
44078;SDS011;29744;49.078;12.878;2023-05-10T13:17:18;1.27;;;0.80;;
44078;SDS011;29744;49.078;12.878;2023-05-10T13:22:18;1.40;;;1.00;;
44078;SDS011;29744;49.078;12.878;2023-05-10T13:27:18;1.17;;;0.80;;
44078;SDS011;29744;49.078;12.878;2023-05-10T13:32:19;1.42;;;0.75;;
44078;SDS011;29744;49.078;12.878;2023-05-10T13:37:20;1.02;;;0.80;;
44078;SDS011;29744;49.078;12.878;2023-05-10T13:42:21;1.35;;;0.80;;
44078;SDS011;29744;49.078;12.878;2023-05-10T13:47:23;1.13;;;0.75;;
44078;SDS011;29744;49.078;12.878;2023-05-10T13:52:23;1.30;;;0.80;;
44078;SDS011;29744;49.078;12.878;2023-05-10T13:57:23;0.93;;;0.75;;
44078;SDS011;29744;49.078;12.878;2023-05-10T14:02:24;1.20;;;0.75;;
44078;SDS011;29744;49.078;12.878;2023-05-10T14:07:24;0.88;;;0.75;;
44078;SDS011;29744;49.078;12.878;2023-05-10T14:12:24;1.10;;;0.70;;
44078;SDS011;29744;49.078;12.878;2023-05-10T14:17:25;1.15;;;0.82;;
44078;SDS011;29744;49.078;12.878;2023-05-10T14:22:25;1.10;;;0.77;;
44078;SDS011;29744;49.078;12.878;2023-05-10T14:27:25;1.25;;;0.85;;
44078;SDS011;29744;49.078;12.878;2023-05-10T14:32:26;1.00;;;0.80;;
44078;SDS011;29744;49.078;12.878;2023-05-10T14:37:27;1.48;;;0.77;;
44078;SDS011;29744;49.078;12.878;2023-05-10T14:42:27;1.23;;;0.70;;
44078;SDS011;29744;49.078;12.878;2023-05-10T14:47:28;1.02;;;0.80;;
44078;SDS011;29744;49.078;12.878;2023-05-10T14:52:28;1.13;;;0.90;;
44078;SDS011;29744;49.078;12.878;2023-05-10T14:57:29;1.35;;;0.70;;
44078;SDS011;29744;49.078;12.878;2023-05-10T15:02:30;1.33;;;0.90;;
44078;SDS011;29744;49.078;12.878;2023-05-10T15:07:31;1.30;;;0.70;;
44078;SDS011;29744;49.078;12.878;2023-05-10T15:12:31;1.60;;;0.90;;
44078;SDS011;29744;49.078;12.878;2023-05-10T15:17:32;1.70;;;0.85;;
44078;SDS011;29744;49.078;12.878;2023-05-10T15:22:32;0.80;;;0.52;;
44078;SDS011;29744;49.078;12.878;2023-05-10T15:27:32;1.00;;;0.70;;
44078;SDS011;29744;49.078;12.878;2023-05-10T15:32:33;0.85;;;0.68;;
44078;SDS011;29744;49.078;12.878;2023-05-10T15:37:33;0.90;;;0.70;;
44078;SDS011;29744;49.078;12.878;2023-05-10T15:42:33;1.42;;;0.80;;
44078;SDS011;29744;49.078;12.878;2023-05-10T15:47:34;0.82;;;0.60;;
44078;SDS011;29744;49.078;12.878;2023-05-10T15:52:34;1.02;;;0.70;;
44078;SDS011;29744;49.078;12.878;2023-05-10T15:57:35;1.05;;;0.80;;
44078;SDS011;29744;49.078;12.878;2023-05-10T16:02:35;1.23;;;0.80;;
44078;SDS011;29744;49.078;12.878;2023-05-10T16:07:36;0.82;;;0.70;;
44078;SDS011;29744;49.078;12.878;2023-05-10T16:12:36;0.93;;;0.70;;
44078;SDS011;29744;49.078;12.878;2023-05-10T16:17:37;1.40;;;0.70;;
44078;SDS011;29744;49.078;12.878;2023-05-10T16:22:37;0.82;;;0.60;;
44078;SDS011;29744;49.078;12.878;2023-05-10T16:27:38;0.90;;;0.70;;
44078;SDS011;29744;49.078;12.878;2023-05-10T16:32:38;1.30;;;0.73;;
44078;SDS011;29744;49.078;12.878;2023-05-10T16:37:38;1.20;;;0.70;;
44078;SDS011;29744;49.078;12.878;2023-05-10T16:42:39;0.70;;;0.70;;
44078;SDS011;29744;49.078;12.878;2023-05-10T16:47:39;0.70;;;0.52;;
44078;SDS011;29744;49.078;12.878;2023-05-10T16:52:39;1.08;;;0.70;;
44078;SDS011;29744;49.078;12.878;2023-05-10T16:57:40;1.17;;;0.80;;
44078;SDS011;29744;49.078;12.878;2023-05-10T17:02:40;0.90;;;0.60;;
44078;SDS011;29744;49.078;12.878;2023-05-10T17:07:40;0.90;;;0.63;;
44078;SDS011;29744;49.078;12.878;2023-05-10T17:12:41;1.30;;;0.80;;
44078;SDS011;29744;49.078;12.878;2023-05-10T17:17:42;1.50;;;0.70;;
44078;SDS011;29744;49.078;12.878;2023-05-10T17:22:42;0.68;;;0.60;;
44078;SDS011;29744;49.078;12.878;2023-05-10T17:27:42;0.88;;;0.65;;
44078;SDS011;29744;49.078;12.878;2023-05-10T17:32:43;0.50;;;0.50;;
44078;SDS011;29744;49.078;12.878;2023-05-10T17:37:43;0.93;;;0.60;;
44078;SDS011;29744;49.078;12.878;2023-05-10T17:42:43;1.52;;;0.80;;
44078;SDS011;29744;49.078;12.878;2023-05-10T17:47:44;1.00;;;0.65;;
44078;SDS011;29744;49.078;12.878;2023-05-10T17:52:44;0.85;;;0.57;;
44078;SDS011;29744;49.078;12.878;2023-05-10T17:57:45;0.88;;;0.60;;
44078;SDS011;29744;49.078;12.878;2023-05-10T18:02:45;1.02;;;0.65;;
44078;SDS011;29744;49.078;12.878;2023-05-10T18:07:45;0.65;;;0.52;;
44078;SDS011;29744;49.078;12.878;2023-05-10T18:12:46;0.90;;;0.65;;
44078;SDS011;29744;49.078;12.878;2023-05-10T18:17:47;1.08;;;0.65;;
44078;SDS011;29744;49.078;12.878;2023-05-10T18:22:48;0.65;;;0.50;;
44078;SDS011;29744;49.078;12.878;2023-05-10T18:27:48;0.75;;;0.55;;
44078;SDS011;29744;49.078;12.878;2023-05-10T18:32:49;1.05;;;0.70;;
44078;SDS011;29744;49.078;12.878;2023-05-10T18:37:49;0.90;;;0.68;;
44078;SDS011;29744;49.078;12.878;2023-05-10T18:42:49;1.25;;;0.73;;
44078;SDS011;29744;49.078;12.878;2023-05-10T18:47:50;0.55;;;0.50;;
44078;SDS011;29744;49.078;12.878;2023-05-10T18:52:50;0.85;;;0.60;;
44078;SDS011;29744;49.078;12.878;2023-05-10T18:57:50;0.90;;;0.63;;
44078;SDS011;29744;49.078;12.878;2023-05-10T19:02:50;1.02;;;0.60;;
44078;SDS011;29744;49.078;12.878;2023-05-10T19:07:52;1.00;;;0.68;;
44078;SDS011;29744;49.078;12.878;2023-05-10T19:12:52;0.65;;;0.60;;
44078;SDS011;29744;49.078;12.878;2023-05-10T19:17:52;0.70;;;0.50;;
44078;SDS011;29744;49.078;12.878;2023-05-10T19:22:53;0.70;;;0.60;;
44078;SDS011;29744;49.078;12.878;2023-05-10T19:27:56;1.60;;;0.73;;
44078;SDS011;29744;49.078;12.878;2023-05-10T19:32:57;0.70;;;0.50;;
44078;SDS011;29744;49.078;12.878;2023-05-10T19:37:57;1.25;;;0.70;;
44078;SDS011;29744;49.078;12.878;2023-05-10T19:42:57;0.57;;;0.50;;
44078;SDS011;29744;49.078;12.878;2023-05-10T19:47:59;0.60;;;0.55;;
44078;SDS011;29744;49.078;12.878;2023-05-10T19:53:00;0.77;;;0.63;;
44078;SDS011;29744;49.078;12.878;2023-05-10T19:58:00;1.13;;;0.70;;
44078;SDS011;29744;49.078;12.878;2023-05-10T20:03:02;0.90;;;0.57;;
44078;SDS011;29744;49.078;12.878;2023-05-10T20:08:04;0.60;;;0.60;;
44078;SDS011;29744;49.078;12.878;2023-05-10T20:13:04;1.00;;;0.70;;
44078;SDS011;29744;49.078;12.878;2023-05-10T20:18:05;0.50;;;0.50;;
44078;SDS011;29744;49.078;12.878;2023-05-10T20:23:05;0.98;;;0.77;;
44078;SDS011;29744;49.078;12.878;2023-05-10T20:28:05;0.55;;;0.50;;
44078;SDS011;29744;49.078;12.878;2023-05-10T20:33:07;1.25;;;0.60;;
44078;SDS011;29744;49.078;12.878;2023-05-10T20:38:08;0.65;;;0.60;;
44078;SDS011;29744;49.078;12.878;2023-05-10T20:43:08;0.43;;;0.43;;
44078;SDS011;29744;49.078;12.878;2023-05-10T20:48:08;0.60;;;0.55;;
44078;SDS011;29744;49.078;12.878;2023-05-10T20:53:09;0.82;;;0.57;;
44078;SDS011;29744;49.078;12.878;2023-05-10T20:58:09;0.70;;;0.60;;
44078;SDS011;29744;49.078;12.878;2023-05-10T21:03:09;1.15;;;0.60;;
44078;SDS011;29744;49.078;12.878;2023-05-10T21:08:10;1.30;;;0.68;;
44078;SDS011;29744;49.078;12.878;2023-05-10T21:13:10;0.70;;;0.60;;
44078;SDS011;29744;49.078;12.878;2023-05-10T21:18:10;0.63;;;0.50;;
44078;SDS011;29744;49.078;12.878;2023-05-10T21:23:10;1.00;;;0.70;;
44078;SDS011;29744;49.078;12.878;2023-05-10T21:28:11;0.85;;;0.60;;
44078;SDS011;29744;49.078;12.878;2023-05-10T21:33:11;0.50;;;0.50;;
44078;SDS011;29744;49.078;12.878;2023-05-10T21:38:11;0.65;;;0.50;;
44078;SDS011;29744;49.078;12.878;2023-05-10T21:43:12;0.70;;;0.60;;
44078;SDS011;29744;49.078;12.878;2023-05-10T21:48:12;0.82;;;0.50;;
44078;SDS011;29744;49.078;12.878;2023-05-10T21:53:12;0.60;;;0.60;;
44078;SDS011;29744;49.078;12.878;2023-05-10T21:58:13;0.85;;;0.60;;
44078;SDS011;29744;49.078;12.878;2023-05-10T22:03:13;0.57;;;0.50;;
44078;SDS011;29744;49.078;12.878;2023-05-10T22:08:13;0.82;;;0.60;;
44078;SDS011;29744;49.078;12.878;2023-05-10T22:13:13;0.50;;;0.50;;
44078;SDS011;29744;49.078;12.878;2023-05-10T22:18:14;0.95;;;0.65;;
44078;SDS011;29744;49.078;12.878;2023-05-10T22:23:14;0.45;;;0.45;;
44078;SDS011;29744;49.078;12.878;2023-05-10T22:28:14;0.60;;;0.50;;
44078;SDS011;29744;49.078;12.878;2023-05-10T22:33:15;0.77;;;0.60;;
44078;SDS011;29744;49.078;12.878;2023-05-10T22:38:15;0.77;;;0.55;;
44078;SDS011;29744;49.078;12.878;2023-05-10T22:43:16;0.50;;;0.50;;
44078;SDS011;29744;49.078;12.878;2023-05-10T22:48:17;0.77;;;0.60;;
44078;SDS011;29744;49.078;12.878;2023-05-10T22:53:17;0.85;;;0.60;;
44078;SDS011;29744;49.078;12.878;2023-05-10T22:58:17;0.57;;;0.47;;
44078;SDS011;29744;49.078;12.878;2023-05-10T23:03:18;0.60;;;0.50;;
44078;SDS011;29744;49.078;12.878;2023-05-10T23:08:18;0.80;;;0.60;;
44078;SDS011;29744;49.078;12.878;2023-05-10T23:13:18;0.73;;;0.60;;
44078;SDS011;29744;49.078;12.878;2023-05-10T23:18:20;0.45;;;0.43;;
44078;SDS011;29744;49.078;12.878;2023-05-10T23:23:21;0.73;;;0.60;;
44078;SDS011;29744;49.078;12.878;2023-05-10T23:28:21;0.57;;;0.50;;
44078;SDS011;29744;49.078;12.878;2023-05-10T23:33:22;0.75;;;0.50;;
44078;SDS011;29744;49.078;12.878;2023-05-10T23:38:22;1.10;;;0.70;;
44078;SDS011;29744;49.078;12.878;2023-05-10T23:43:22;0.70;;;0.60;;
44078;SDS011;29744;49.078;12.878;2023-05-10T23:48:24;0.55;;;0.50;;
44078;SDS011;29744;49.078;12.878;2023-05-10T23:53:24;0.70;;;0.50;;
44078;SDS011;29744;49.078;12.878;2023-05-10T23:58:24;0.50;;;0.40;;
